createdAt,value
2024-01-11T00:03:03.000Z,16.5
2024-01-11T00:13:03.000Z,14.59
2024-01-11T00:18:02.000Z,13.5
2024-01-11T00:23:02.000Z,14.83
2024-01-11T00:28:02.000Z,14.83
2024-01-11T00:33:02.000Z,14.3
2024-01-11T00:38:02.000Z,14.3
2024-01-11T00:43:02.000Z,14.24
2024-01-11T00:48:03.000Z,13.94
2024-01-11T00:53:03.000Z,13.94
2024-01-11T00:58:02.000Z,13.56
2024-01-11T01:03:03.000Z,13.76
2024-01-11T01:08:02.000Z,14.34
2024-01-11T01:13:03.000Z,14.34
2024-01-11T01:23:02.000Z,15.17
2024-01-11T01:28:03.000Z,16.94
2024-01-11T01:33:02.000Z,16.94
2024-01-11T01:43:03.000Z,17.6
2024-01-11T01:48:03.000Z,17.6
2024-01-11T01:53:03.000Z,23.65
2024-01-11T01:58:02.000Z,30.86
2024-01-11T02:03:02.000Z,30.44
2024-01-11T02:08:03.000Z,25.38
2024-01-11T02:13:02.000Z,25.38
2024-01-11T02:23:03.000Z,26.1
2024-01-11T02:28:02.000Z,26.1
2024-01-11T02:33:02.000Z,25.94
2024-01-11T02:38:02.000Z,29.29
2024-01-11T02:43:02.000Z,32.13
2024-01-11T02:48:02.000Z,27.38
2024-01-11T02:53:03.000Z,27.38
2024-01-11T03:03:02.000Z,27.55
2024-01-11T03:08:02.000Z,25
2024-01-11T03:13:03.000Z,28.11
2024-01-11T03:18:02.000Z,25.18
2024-01-11T03:23:03.000Z,25.18
2024-01-11T03:33:02.000Z,27.23
2024-01-11T03:38:02.000Z,29.38
2024-01-11T03:43:02.000Z,29.38
2024-01-11T03:58:02.000Z,28.64
2024-01-11T04:03:02.000Z,27.23
2024-01-11T04:08:02.000Z,27.23
2024-01-11T04:13:02.000Z,27.23
2024-01-11T04:18:02.000Z,24.46
2024-01-11T04:23:02.000Z,23.67
2024-01-11T04:28:02.000Z,23.02
2024-01-11T04:33:03.000Z,23.09
2024-01-11T04:38:03.000Z,23.09
2024-01-11T04:48:02.000Z,25.3
2024-01-11T04:53:02.000Z,25.3
2024-01-11T05:03:03.000Z,30.91
2024-01-11T05:08:02.000Z,30.91
2024-01-11T05:18:02.000Z,28.91
2024-01-11T05:23:02.000Z,32.93
2024-01-11T05:28:02.000Z,32.93
2024-01-11T05:38:02.000Z,29.87
2024-01-11T05:43:02.000Z,20.75
2024-01-11T05:48:02.000Z,18.85
2024-01-11T05:53:02.000Z,18.82
2024-01-11T05:58:03.000Z,17.13
2024-01-11T06:03:02.000Z,17.13
2024-01-11T06:18:03.000Z,15.59
2024-01-11T06:23:03.000Z,15.27
2024-01-11T06:28:02.000Z,15.62
2024-01-11T06:33:03.000Z,15.5
2024-01-11T06:38:03.000Z,16.08
2024-01-11T06:43:02.000Z,16.08
2024-01-11T06:53:03.000Z,16.39
2024-01-11T06:58:02.000Z,19.35
2024-01-11T07:03:02.000Z,20.37
2024-01-11T07:08:02.000Z,20.37
2024-01-11T07:23:02.000Z,18.98
2024-01-11T07:28:02.000Z,18.66
2024-01-11T07:33:02.000Z,18.89
2024-01-11T07:38:02.000Z,19.19
2024-01-11T07:43:02.000Z,19.47
2024-01-11T07:48:02.000Z,19.07
2024-01-11T07:53:02.000Z,19.68
2024-01-11T07:58:02.000Z,20.44
2024-01-11T08:03:02.000Z,20.44
2024-01-11T08:08:02.000Z,20.67
2024-01-11T08:13:02.000Z,21.61
2024-01-11T08:18:03.000Z,21.56
2024-01-11T08:23:03.000Z,21.45
2024-01-11T08:28:03.000Z,21.45
2024-01-11T08:38:03.000Z,23.18
2024-01-11T08:43:03.000Z,23.34
2024-01-11T08:48:02.000Z,23.9
2024-01-11T08:53:02.000Z,24.94
2024-01-11T08:58:02.000Z,26.5
2024-01-11T09:03:03.000Z,26.5
2024-01-11T09:08:03.000Z,27.02
2024-01-11T09:13:03.000Z,27.73
2024-01-11T09:18:03.000Z,27.73
2024-01-11T09:28:02.000Z,29.6
2024-01-11T09:33:02.000Z,29.6
2024-01-11T09:48:02.000Z,30.1
2024-01-11T09:53:02.000Z,28.45
2024-01-11T09:58:02.000Z,27.94
2024-01-11T10:03:02.000Z,29.89
2024-01-11T10:08:02.000Z,29.89
2024-01-11T10:18:02.000Z,33.47
2024-01-11T10:23:02.000Z,33.47
2024-01-11T10:33:01.000Z,35.66
2024-01-11T10:38:02.000Z,35.66
2024-01-11T10:48:02.000Z,34.38
2024-01-11T10:53:02.000Z,31.1
2024-01-11T10:58:02.000Z,31.1
2024-01-11T11:03:02.000Z,30.37
2024-01-11T11:08:03.000Z,29.2
2024-01-11T11:13:02.000Z,27.69
2024-01-11T11:18:02.000Z,26.94
2024-01-11T11:23:02.000Z,28.92
2024-01-11T11:28:02.000Z,25.91
2024-01-11T11:33:02.000Z,21.13
2024-01-11T11:38:02.000Z,15.94
2024-01-11T11:43:02.000Z,16.19
2024-01-11T11:48:02.000Z,15.96
2024-01-11T11:53:03.000Z,15.69
2024-01-11T11:58:02.000Z,15.45
2024-01-11T12:03:03.000Z,15.68
2024-01-11T12:08:01.000Z,20.29
2024-01-11T12:13:02.000Z,20.29
2024-01-11T12:18:03.000Z,23.92
2024-01-11T12:23:02.000Z,20.21
2024-01-11T12:28:02.000Z,19.69
2024-01-11T12:33:03.000Z,16.84
2024-01-11T12:38:02.000Z,16.73
2024-01-11T12:43:02.000Z,17.48
2024-01-11T12:48:02.000Z,19.45
2024-01-11T12:53:02.000Z,21.47
2024-01-11T12:58:03.000Z,21.47
2024-01-11T13:03:03.000Z,21.41
2024-01-11T13:08:03.000Z,22.51
2024-01-11T13:13:03.000Z,26.65
2024-01-11T13:18:03.000Z,20.91
2024-01-11T13:23:02.000Z,20.91
2024-01-11T13:28:02.000Z,21.68
2024-01-11T13:33:02.000Z,18.22
2024-01-11T13:38:02.000Z,18.22
2024-01-11T13:43:02.000Z,17.39
2024-01-11T13:48:02.000Z,12.58
2024-01-11T13:53:02.000Z,11.36
2024-01-11T13:58:02.000Z,12.19
2024-01-11T14:03:02.000Z,8.68
2024-01-11T14:08:02.000Z,10.89
2024-01-11T14:13:03.000Z,10.07
2024-01-11T14:18:02.000Z,10.07
2024-01-11T14:23:02.000Z,11.22
2024-01-11T14:28:02.000Z,7.38
2024-01-11T14:33:02.000Z,5.72
2024-01-11T14:38:03.000Z,5.42
2024-01-11T14:43:02.000Z,6.39
2024-01-11T14:48:02.000Z,5.43
2024-01-11T14:53:02.000Z,5.6
2024-01-11T14:58:03.000Z,5.55
2024-01-11T15:03:03.000Z,5.55
2024-01-11T15:08:03.000Z,5.29
2024-01-11T15:13:02.000Z,5.29
2024-01-11T15:18:03.000Z,5.17
2024-01-11T15:23:02.000Z,5.17
2024-01-11T15:28:02.000Z,1.81
2024-01-11T15:33:02.000Z,1.81
2024-01-11T15:38:02.000Z,1.59
2024-01-11T15:43:02.000Z,1.37
2024-01-11T15:48:03.000Z,1.37
2024-01-11T15:53:03.000Z,2.29
2024-01-11T15:58:03.000Z,3.48
2024-01-11T16:03:03.000Z,3.22
2024-01-11T16:08:03.000Z,2.92
2024-01-11T16:13:02.000Z,2.92
2024-01-11T16:23:02.000Z,1.93
2024-01-11T16:28:02.000Z,1.4
2024-01-11T16:33:02.000Z,1.41
2024-01-11T16:38:02.000Z,1.72
2024-01-11T16:43:02.000Z,1.9
2024-01-11T16:48:02.000Z,1.9
2024-01-11T17:03:03.000Z,1.65
2024-01-11T17:08:02.000Z,1.57
2024-01-11T17:13:02.000Z,1.57
2024-01-11T17:23:02.000Z,1.7
2024-01-11T17:28:02.000Z,1.93
2024-01-11T17:33:02.000Z,1.81
2024-01-11T17:38:02.000Z,1.83
2024-01-11T17:43:03.000Z,2.09
2024-01-11T17:48:03.000Z,1.9
2024-01-11T17:53:01.000Z,1.9
2024-01-11T18:03:02.000Z,1.35
2024-01-11T18:08:03.000Z,3.33
2024-01-11T18:13:02.000Z,2.55
2024-01-11T18:18:02.000Z,2.55
2024-01-11T18:23:02.000Z,0.56
2024-01-11T18:28:03.000Z,0.56
2024-01-11T18:38:03.000Z,0.97
2024-01-11T18:43:02.000Z,0.97
2024-01-11T18:48:03.000Z,1.19
2024-01-11T18:53:03.000Z,1.19
2024-01-11T18:58:02.000Z,1.34
2024-01-11T19:03:02.000Z,1.34
2024-01-11T19:13:02.000Z,1.93
2024-01-11T19:18:02.000Z,2.19
2024-01-11T19:23:02.000Z,1.06
2024-01-11T19:28:02.000Z,0.44
2024-01-11T19:33:03.000Z,0.44
2024-01-11T19:48:03.000Z,0.57
2024-01-11T19:53:02.000Z,0.57
2024-01-11T20:03:03.000Z,0.55
2024-01-11T20:08:02.000Z,0.55
2024-01-11T20:13:03.000Z,0.55
2024-01-11T20:38:02.000Z,0.03
2024-01-11T20:43:02.000Z,0.03
2024-01-11T20:53:02.000Z,0.66
2024-01-11T20:58:02.000Z,0.66
2024-01-11T21:08:03.000Z,3.6
2024-01-11T21:13:03.000Z,4.22
2024-01-11T21:18:03.000Z,4.22
2024-01-11T21:33:03.000Z,3.78
2024-01-11T21:38:02.000Z,3.78
2024-01-11T21:48:02.000Z,1.93
2024-01-11T21:53:03.000Z,1.93
2024-01-11T21:58:02.000Z,2.15
2024-01-11T22:03:03.000Z,3.08
2024-01-11T22:08:03.000Z,3.08
2024-01-11T22:18:03.000Z,2.53
2024-01-11T22:23:02.000Z,1.54
2024-01-11T22:28:03.000Z,1.45
2024-01-11T22:33:03.000Z,1.45
2024-01-11T22:38:03.000Z,1.17
2024-01-11T22:43:02.000Z,0.98
2024-01-11T22:48:03.000Z,0.92
2024-01-11T22:53:02.000Z,0.92
2024-01-11T23:03:02.000Z,1.19
2024-01-11T23:08:02.000Z,1.32
2024-01-11T23:13:03.000Z,1.69
2024-01-11T23:18:03.000Z,1.96
2024-01-11T23:23:03.000Z,2.01
2024-01-11T23:28:02.000Z,2.01
2024-01-11T23:33:02.000Z,2.05
2024-01-11T23:38:02.000Z,2.09
2024-01-11T23:43:02.000Z,2.25
2024-01-11T23:48:02.000Z,2.52
2024-01-11T23:53:02.000Z,3.18
2024-01-11T23:58:02.000Z,3.67
